Time,TemperatureF,DewpointF,PressureIn,WindDirection,WindDirectionDegrees,WindSpeedMPH,WindSpeedGustMPH,Humidity,HourlyPrecipIn,Conditions,Clouds,dailyrainin,SoftwareType,DateUTC
2013-04-21 00:00:00,32.8,22.3,30.31,South,182,0.0,10.0,65,0.00,,---,0.00,VWS V14.00,2013-04-21 05:00:00,
2013-04-21 00:01:00,33.0,22.5,30.31,South,182,0.0,2.0,65,0.00,,---,0.00,VWS V14.00,2013-04-21 05:01:00,
2013-04-21 00:06:00,33.2,22.7,30.31,South,175,2.0,4.0,65,0.00,,---,0.00,VWS V14.00,2013-04-21 05:06:00,
2013-04-21 00:11:00,33.5,23.0,30.31,South,190,2.0,4.0,65,0.00,,---,0.00,VWS V14.00,2013-04-21 05:11:00,
2013-04-21 00:16:00,33.8,23.3,30.31,South,172,2.0,6.0,65,0.00,,---,0.00,VWS V14.00,2013-04-21 05:16:00,
2013-04-21 00:21:00,34.1,23.6,30.31,SW,219,11.0,11.0,65,0.00,,---,0.00,VWS V14.00,2013-04-21 05:21:00,
2013-04-21 00:26:00,34.2,23.3,30.31,South,176,2.0,11.0,64,0.00,,---,0.00,VWS V14.00,2013-04-21 05:26:00,
2013-04-21 00:30:00,34.2,23.3,30.31,South,175,3.0,11.0,64,0.00,,---,0.00,VWS V14.00,2013-04-21 05:30:00,
2013-04-21 00:31:00,34.3,23.8,30.31,SSE,161,1.0,7.0,65,0.00,,---,0.00,VWS V14.00,2013-04-21 05:31:00,
2013-04-21 00:36:00,34.3,24.9,30.31,South,184,3.0,12.0,68,0.00,,---,0.00,VWS V14.00,2013-04-21 05:36:00,
2013-04-21 00:41:00,34.3,26.2,30.30,South,181,4.0,13.0,72,0.00,,---,0.00,VWS V14.00,2013-04-21 05:41:00,
2013-04-21 00:46:00,34.2,26.8,30.31,SSE,157,5.0,13.0,74,0.00,,---,0.00,VWS V14.00,2013-04-21 05:46:00,
2013-04-21 00:51:00,34.0,27.2,30.31,South,180,3.0,13.0,76,0.00,,---,0.00,VWS V14.00,2013-04-21 05:51:00,
2013-04-21 00:56:00,33.9,27.5,30.31,South,179,6.0,13.0,77,0.00,,---,0.00,VWS V14.00,2013-04-21 05:56:00,
2013-04-21 01:00:00,33.8,27.4,30.31,SSE,165,9.0,13.0,77,0.00,,---,0.00,VWS V14.00,2013-04-21 06:00:00,
2013-04-21 01:01:00,33.7,27.6,30.31,South,180,2.0,10.0,78,0.00,,---,0.00,VWS V14.00,2013-04-21 06:01:00,
2013-04-21 01:06:00,33.5,28.0,30.31,South,185,1.0,10.0,80,0.00,,---,0.00,VWS V14.00,2013-04-21 06:06:00,
2013-04-21 01:11:00,33.3,28.4,30.31,South,175,1.0,10.0,82,0.00,,---,0.00,VWS V14.00,2013-04-21 06:11:00,
2013-04-21 01:16:00,33.1,28.5,30.31,South,174,1.0,10.0,83,0.00,,---,0.00,VWS V14.00,2013-04-21 06:16:00,
2013-04-21 01:21:00,32.9,28.9,30.31,South,178,2.0,10.0,85,0.00,,---,0.00,VWS V14.00,2013-04-21 06:21:00,
2013-04-21 01:26:00,32.8,29.1,30.31,SSE,167,1.0,10.0,86,0.00,,---,0.00,VWS V14.00,2013-04-21 06:26:00,
2013-04-21 01:30:00,32.8,29.4,30.31,SSE,167,2.0,10.0,87,0.00,,---,0.00,VWS V14.00,2013-04-21 06:30:00,
2013-04-21 01:31:00,32.6,29.5,30.31,South,172,4.0,10.0,88,0.00,,---,0.00,VWS V14.00,2013-04-21 06:31:00,
2013-04-21 01:36:00,32.6,29.7,30.31,South,174,2.0,10.0,89,0.00,,---,0.00,VWS V14.00,2013-04-21 06:36:00,
2013-04-21 01:41:00,32.5,29.6,30.30,SE,144,5.0,10.0,89,0.00,,---,0.00,VWS V14.00,2013-04-21 06:41:00,
2013-04-21 01:46:00,32.5,29.9,30.30,SSE,153,1.0,10.0,90,0.00,,---,0.00,VWS V14.00,2013-04-21 06:46:00,
2013-04-21 01:51:00,32.4,29.8,30.30,SSE,150,2.0,10.0,90,0.00,,---,0.00,VWS V14.00,2013-04-21 06:51:00,
2013-04-21 01:56:00,32.3,30.0,30.30,SE,144,0.0,10.0,91,0.00,,---,0.00,VWS V14.00,2013-04-21 06:56:00,
2013-04-21 02:00:00,32.3,30.0,30.29,SE,144,3.0,10.0,91,0.00,,---,0.00,VWS V14.00,2013-04-21 07:00:00,
2013-04-21 02:01:00,32.3,30.0,30.29,SE,143,0.0,4.0,91,0.00,,---,0.00,VWS V14.00,2013-04-21 07:01:00,
2013-04-21 02:06:00,32.3,30.2,30.29,SE,143,3.0,5.0,92,0.00,,---,0.00,VWS V14.00,2013-04-21 07:06:00,
2013-04-21 02:11:00,32.3,30.2,30.29,SE,142,0.0,5.0,92,0.00,,---,0.00,VWS V14.00,2013-04-21 07:11:00,
2013-04-21 02:16:00,32.3,30.2,30.29,SE,139,4.0,6.0,92,0.00,,---,0.00,VWS V14.00,2013-04-21 07:16:00,
2013-04-21 02:21:00,32.3,30.2,30.29,SE,139,3.0,6.0,92,0.00,,---,0.00,VWS V14.00,2013-04-21 07:21:00,
2013-04-21 02:26:00,32.3,30.2,30.29,SE,136,0.0,6.0,92,0.00,,---,0.00,VWS V14.00,2013-04-21 07:26:00,
2013-04-21 02:30:00,32.3,30.2,30.29,SE,136,0.0,6.0,92,0.00,,---,0.00,VWS V14.00,2013-04-21 07:30:00,
2013-04-21 02:31:00,32.3,30.5,30.28,SE,136,3.0,3.0,93,0.00,,---,0.00,VWS V14.00,2013-04-21 07:31:00,
2013-04-21 02:36:00,32.3,30.5,30.28,SE,136,3.0,5.0,93,0.00,,---,0.00,VWS V14.00,2013-04-21 07:36:00,
2013-04-21 02:41:00,32.3,30.5,30.28,ESE,118,3.0,5.0,93,0.00,,---,0.00,VWS V14.00,2013-04-21 07:41:00,
2013-04-21 02:46:00,32.3,30.5,30.27,SE,142,5.0,7.0,93,0.00,,---,0.00,VWS V14.00,2013-04-21 07:46:00,
2013-04-21 02:51:00,32.3,30.5,30.27,ESE,123,2.0,9.0,93,0.00,,---,0.00,VWS V14.00,2013-04-21 07:51:00,
2013-04-21 02:56:00,32.3,30.8,30.27,ESE,120,0.0,9.0,94,0.00,,---,0.00,VWS V14.00,2013-04-21 07:56:00,
2013-04-21 03:00:00,32.3,30.5,30.27,ESE,120,0.0,9.0,93,0.00,,---,0.00,VWS V14.00,2013-04-21 08:00:00,
2013-04-21 03:01:00,32.3,30.5,30.27,ESE,109,0.0,0.0,93,0.00,,---,0.00,VWS V14.00,2013-04-21 08:01:00,
2013-04-21 03:06:00,32.3,30.8,30.27,SE,127,3.0,5.0,94,0.00,,---,0.00,VWS V14.00,2013-04-21 08:06:00,
2013-04-21 03:11:00,32.3,30.8,30.27,ESE,106,3.0,6.0,94,0.00,,---,0.00,VWS V14.00,2013-04-21 08:11:00,
2013-04-21 03:16:00,32.4,30.9,30.27,SE,134,0.0,6.0,94,0.00,,---,0.00,VWS V14.00,2013-04-21 08:16:00,
2013-04-21 03:21:00,32.4,30.9,30.26,SE,126,3.0,8.0,94,0.00,,---,0.00,VWS V14.00,2013-04-21 08:21:00,
2013-04-21 03:26:00,32.4,30.9,30.26,ESE,119,3.0,8.0,94,0.00,,---,0.00,VWS V14.00,2013-04-21 08:26:00,
2013-04-21 03:30:00,32.4,30.9,30.26,SE,124,4.0,8.0,94,0.00,,---,0.00,VWS V14.00,2013-04-21 08:30:00,
2013-04-21 03:31:00,32.5,31.0,30.26,ESE,109,0.0,5.0,94,0.00,,---,0.00,VWS V14.00,2013-04-21 08:31:00,
2013-04-21 03:36:00,32.5,31.0,30.26,East,101,0.0,5.0,94,0.00,,---,0.00,VWS V14.00,2013-04-21 08:36:00,
2013-04-21 03:41:00,32.5,31.0,30.25,SE,132,3.0,7.0,94,0.00,,---,0.00,VWS V14.00,2013-04-21 08:41:00,
2013-04-21 03:46:00,32.5,31.0,30.25,ESE,103,3.0,7.0,94,0.00,,---,0.00,VWS V14.00,2013-04-21 08:46:00,
2013-04-21 03:51:00,32.6,31.1,30.25,ESE,121,3.0,7.0,94,0.00,,---,0.00,VWS V14.00,2013-04-21 08:51:00,
2013-04-21 03:56:00,32.6,31.3,30.25,ESE,103,3.0,7.0,95,0.00,,---,0.00,VWS V14.00,2013-04-21 08:56:00,
2013-04-21 04:00:00,32.6,31.3,30.25,East,98,3.0,7.0,95,0.00,,---,0.00,VWS V14.00,2013-04-21 09:00:00,
2013-04-21 04:01:00,32.7,31.4,30.25,East,90,2.0,7.0,95,0.00,,---,0.00,VWS V14.00,2013-04-21 09:01:00,
2013-04-21 04:06:00,32.7,31.4,30.25,SE,140,3.0,11.0,95,0.00,,---,0.00,VWS V14.00,2013-04-21 09:06:00,
2013-04-21 04:11:00,32.8,31.5,30.25,ESE,105,2.0,11.0,95,0.00,,---,0.00,VWS V14.00,2013-04-21 09:11:00,
2013-04-21 04:16:00,32.9,31.6,30.25,ESE,105,7.0,11.0,95,0.00,,---,0.00,VWS V14.00,2013-04-21 09:16:00,
2013-04-21 04:21:00,32.9,31.6,30.24,ESE,115,3.0,11.0,95,0.00,,---,0.00,VWS V14.00,2013-04-21 09:21:00,
2013-04-21 04:26:00,33.0,31.7,30.24,SE,129,4.0,11.0,95,0.00,,---,0.00,VWS V14.00,2013-04-21 09:26:00,
2013-04-21 04:30:00,33.0,31.7,30.24,ESE,111,2.0,11.0,95,0.00,,---,0.00,VWS V14.00,2013-04-21 09:30:00,
2013-04-21 04:31:00,33.0,31.7,30.24,SSE,148,9.0,9.0,95,0.00,,---,0.00,VWS V14.00,2013-04-21 09:31:00,
2013-04-21 04:36:00,33.0,31.7,30.24,SSE,150,6.0,11.0,95,0.00,,---,0.00,VWS V14.00,2013-04-21 09:36:00,
2013-04-21 04:41:00,33.1,31.8,30.24,ESE,119,7.0,11.0,95,0.00,,---,0.00,VWS V14.00,2013-04-21 09:41:00,
2013-04-21 04:46:00,33.2,31.9,30.24,ESE,111,2.0,11.0,95,0.00,,---,0.00,VWS V14.00,2013-04-21 09:46:00,
2013-04-21 04:51:00,33.2,31.9,30.24,SE,138,7.0,11.0,95,0.00,,---,0.00,VWS V14.00,2013-04-21 09:51:00,
2013-04-21 04:56:00,33.3,32.0,30.24,ESE,113,5.0,11.0,95,0.00,,---,0.00,VWS V14.00,2013-04-21 09:56:00,
2013-04-21 05:00:00,33.3,32.0,30.24,ESE,122,4.0,11.0,95,0.00,,---,0.00,VWS V14.00,2013-04-21 10:00:00,
2013-04-21 05:01:00,33.3,32.0,30.24,SE,132,6.0,10.0,95,0.00,,---,0.00,VWS V14.00,2013-04-21 10:01:00,
2013-04-21 05:06:00,33.4,32.1,30.24,ESE,120,7.0,12.0,95,0.00,,---,0.00,VWS V14.00,2013-04-21 10:06:00,
2013-04-21 05:11:00,33.4,32.1,30.24,SE,131,5.0,12.0,95,0.00,,---,0.00,VWS V14.00,2013-04-21 10:11:00,
2013-04-21 05:16:00,33.5,32.2,30.24,SE,143,5.0,15.0,95,0.00,,---,0.00,VWS V14.00,2013-04-21 10:16:00,
2013-04-21 05:21:00,33.6,32.3,30.23,SE,140,4.0,15.0,95,0.00,,---,0.00,VWS V14.00,2013-04-21 10:21:00,
2013-04-21 05:26:00,33.7,32.4,30.23,SE,134,8.0,15.0,95,0.00,,---,0.00,VWS V14.00,2013-04-21 10:26:00,
2013-04-21 05:30:00,33.6,32.3,30.23,SE,127,4.0,15.0,95,0.00,,---,0.00,VWS V14.00,2013-04-21 10:30:00,
2013-04-21 05:31:00,33.7,32.4,30.23,SE,140,6.0,14.0,95,0.00,,---,0.00,VWS V14.00,2013-04-21 10:31:00,
2013-04-21 05:36:00,33.8,32.5,30.22,SE,129,1.0,14.0,95,0.00,,---,0.00,VWS V14.00,2013-04-21 10:36:00,
2013-04-21 05:41:00,33.8,32.5,30.22,SE,136,6.0,14.0,95,0.00,,---,0.00,VWS V14.00,2013-04-21 10:41:00,
2013-04-21 05:46:00,33.9,32.4,30.22,ESE,108,5.0,14.0,94,0.00,,---,0.00,VWS V14.00,2013-04-21 10:46:00,
2013-04-21 05:51:00,34.0,32.5,30.22,ESE,103,5.0,14.0,94,0.00,,---,0.00,VWS V14.00,2013-04-21 10:51:00,
2013-04-21 05:56:00,34.0,32.5,30.22,SE,133,5.0,14.0,94,0.00,,---,0.00,VWS V14.00,2013-04-21 10:56:00,
2013-04-21 06:00:00,34.1,32.6,30.22,SE,136,10.0,14.0,94,0.00,,---,0.00,VWS V14.00,2013-04-21 11:00:00,
2013-04-21 06:01:00,34.2,32.7,30.22,ESE,118,5.0,13.0,94,0.00,,---,0.00,VWS V14.00,2013-04-21 11:01:00,
2013-04-21 06:06:00,34.2,32.7,30.22,SE,130,6.0,13.0,94,0.00,,---,0.00,VWS V14.00,2013-04-21 11:06:00,
2013-04-21 06:11:00,34.3,32.8,30.22,ESE,122,4.0,13.0,94,0.00,,---,0.00,VWS V14.00,2013-04-21 11:11:00,
2013-04-21 06:16:00,34.4,32.6,30.22,SE,129,5.0,13.0,93,0.00,,---,0.00,VWS V14.00,2013-04-21 11:16:00,
2013-04-21 06:21:00,34.5,32.7,30.22,ESE,111,8.0,13.0,93,0.00,,---,0.00,VWS V14.00,2013-04-21 11:21:00,
2013-04-21 06:26:00,34.6,32.8,30.22,SE,146,12.0,15.0,93,0.00,,---,0.00,VWS V14.00,2013-04-21 11:26:00,
2013-04-21 06:30:00,34.7,32.9,30.22,SSE,147,7.0,15.0,93,0.00,,---,0.00,VWS V14.00,2013-04-21 11:30:00,
2013-04-21 06:31:00,34.7,32.6,30.22,SSE,150,9.0,15.0,92,0.00,,---,0.00,VWS V14.00,2013-04-21 11:31:00,
2013-04-21 06:36:00,34.8,32.7,30.22,ESE,123,9.0,16.0,92,0.00,,---,0.00,VWS V14.00,2013-04-21 11:36:00,
2013-04-21 06:40:00,34.8,32.7,30.22,SE,141,4.0,16.0,92,0.00,,---,0.00,VWS V14.00,2013-04-21 11:40:00,
2013-04-21 06:45:00,34.8,32.7,30.22,SE,142,4.0,16.0,92,0.00,,---,0.00,VWS V14.00,2013-04-21 11:45:00,
2013-04-21 06:50:00,34.9,32.8,30.22,SSE,149,10.0,16.0,92,0.00,,---,0.00,VWS V14.00,2013-04-21 11:50:00,
2013-04-21 06:55:00,34.9,32.8,30.22,SE,133,6.0,16.0,92,0.00,,---,0.00,VWS V14.00,2013-04-21 11:55:00,
2013-04-21 07:00:00,35.0,32.9,30.22,SE,131,4.0,15.0,92,0.00,,---,0.00,VWS V14.00,2013-04-21 12:00:00,
2013-04-21 07:05:00,35.1,32.7,30.21,ESE,113,4.0,16.0,91,0.00,,---,0.00,VWS V14.00,2013-04-21 12:05:00,
2013-04-21 07:10:00,35.1,32.7,30.21,SE,140,10.0,16.0,91,0.00,,---,0.00,VWS V14.00,2013-04-21 12:10:00,
2013-04-21 07:15:00,35.2,32.8,30.21,SSE,148,6.0,16.0,91,0.00,,---,0.00,VWS V14.00,2013-04-21 12:15:00,
2013-04-21 07:20:00,35.3,32.9,30.21,SE,128,7.0,16.0,91,0.00,,---,0.00,VWS V14.00,2013-04-21 12:20:00,
2013-04-21 07:25:00,35.5,32.9,30.21,ESE,117,6.0,16.0,90,0.00,,---,0.01,VWS V14.00,2013-04-21 12:25:00,
2013-04-21 07:30:00,35.6,33.0,30.21,SE,138,6.0,16.0,90,0.00,,---,0.01,VWS V14.00,2013-04-21 12:30:00,
2013-04-21 07:35:00,35.7,32.8,30.21,SE,138,13.0,17.0,89,0.00,,---,0.01,VWS V14.00,2013-04-21 12:35:00,
2013-04-21 07:40:00,35.8,32.9,30.20,SE,131,5.0,21.0,89,0.00,,---,0.01,VWS V14.00,2013-04-21 12:40:00,
2013-04-21 07:45:00,35.9,33.0,30.20,ESE,109,7.0,21.0,89,0.00,,---,0.01,VWS V14.00,2013-04-21 12:45:00,
2013-04-21 07:50:00,36.0,33.1,30.20,SE,141,15.0,21.0,89,0.00,,---,0.01,VWS V14.00,2013-04-21 12:50:00,
2013-04-21 07:55:00,36.0,32.8,30.20,SE,136,10.0,21.0,88,0.00,,---,0.01,VWS V14.00,2013-04-21 12:55:00,
2013-04-21 08:00:00,36.1,32.9,30.20,SE,142,10.0,17.0,88,0.00,,---,0.01,VWS V14.00,2013-04-21 13:00:00,
2013-04-21 08:05:00,36.2,33.0,30.20,ESE,120,16.0,17.0,88,0.00,,---,0.01,VWS V14.00,2013-04-21 13:05:00,
2013-04-21 08:10:00,36.2,32.7,30.19,SE,124,11.0,18.0,87,0.00,,---,0.01,VWS V14.00,2013-04-21 13:10:00,
2013-04-21 08:15:00,36.2,32.7,30.19,ESE,116,14.0,18.0,87,0.00,,---,0.01,VWS V14.00,2013-04-21 13:15:00,
2013-04-21 08:20:00,36.3,32.8,30.19,ESE,118,5.0,18.0,87,0.00,,---,0.01,VWS V14.00,2013-04-21 13:20:00,
2013-04-21 08:25:00,36.4,32.9,30.19,SSE,150,10.0,20.0,87,0.00,,---,0.01,VWS V14.00,2013-04-21 13:25:00,
2013-04-21 08:30:00,36.4,33.2,30.19,SE,139,11.0,17.0,88,0.00,,---,0.01,VWS V14.00,2013-04-21 13:30:00,
2013-04-21 08:35:00,36.5,33.3,30.19,ESE,123,13.0,17.0,88,0.00,,---,0.01,VWS V14.00,2013-04-21 13:35:00,
2013-04-21 08:40:00,36.5,33.0,30.19,SSE,153,5.0,18.0,87,0.00,,---,0.01,VWS V14.00,2013-04-21 13:40:00,
2013-04-21 08:45:00,36.6,33.1,30.19,SSE,147,6.0,18.0,87,0.00,,---,0.01,VWS V14.00,2013-04-21 13:45:00,
2013-04-21 08:50:00,36.6,33.1,30.19,SSE,148,16.0,18.0,87,0.00,,---,0.01,VWS V14.00,2013-04-21 13:50:00,
2013-04-21 08:55:00,36.7,33.2,30.18,SSE,147,7.0,18.0,87,0.00,,---,0.01,VWS V14.00,2013-04-21 13:55:00,
2013-04-21 09:00:00,36.8,33.3,30.18,SE,136,13.0,15.0,87,0.00,,---,0.01,VWS V14.00,2013-04-21 14:00:00,
2013-04-21 09:05:00,36.8,33.3,30.17,SSE,154,8.0,16.0,87,0.00,,---,0.01,VWS V14.00,2013-04-21 14:05:00,
2013-04-21 09:10:00,36.9,33.4,30.17,SSE,162,5.0,17.0,87,0.00,,---,0.01,VWS V14.00,2013-04-21 14:10:00,
2013-04-21 09:15:00,37.2,33.7,30.17,ESE,117,4.0,17.0,87,0.00,,---,0.01,VWS V14.00,2013-04-21 14:15:00,
2013-04-21 09:20:00,37.6,34.1,30.17,SSE,150,6.0,17.0,87,0.00,,---,0.01,VWS V14.00,2013-04-21 14:20:00,
2013-04-21 09:25:00,37.9,34.1,30.17,South,169,7.0,18.0,86,0.00,,---,0.01,VWS V14.00,2013-04-21 14:25:00,
2013-04-21 09:30:00,38.0,34.2,30.17,SSE,158,6.0,17.0,86,0.00,,---,0.01,VWS V14.00,2013-04-21 14:30:00,
2013-04-21 09:35:00,38.1,34.3,30.17,SE,130,13.0,17.0,86,0.00,,---,0.01,VWS V14.00,2013-04-21 14:35:00,
2013-04-21 09:40:00,38.3,34.8,30.17,South,187,14.0,18.0,87,0.00,,---,0.01,VWS V14.00,2013-04-21 14:40:00,
2013-04-21 09:45:00,38.6,34.8,30.17,SE,144,14.0,18.0,86,0.00,,---,0.01,VWS V14.00,2013-04-21 14:45:00,
2013-04-21 09:50:00,38.7,34.9,30.17,SE,140,10.0,18.0,86,0.00,,---,0.01,VWS V14.00,2013-04-21 14:50:00,
2013-04-21 09:55:00,38.8,35.0,30.17,SSE,163,16.0,18.0,86,0.00,,---,0.01,VWS V14.00,2013-04-21 14:55:00,
2013-04-21 10:00:00,38.8,35.0,30.17,SE,144,6.0,19.0,86,0.00,,---,0.01,VWS V14.00,2013-04-21 15:00:00,
2013-04-21 10:05:00,38.9,35.1,30.17,SE,144,14.0,19.0,86,0.00,,---,0.01,VWS V14.00,2013-04-21 15:05:00,
2013-04-21 10:10:00,38.9,35.1,30.16,SSE,153,16.0,19.0,86,0.00,,---,0.01,VWS V14.00,2013-04-21 15:10:00,
2013-04-21 10:15:00,39.1,35.3,30.17,South,185,12.0,19.0,86,0.00,,---,0.01,VWS V14.00,2013-04-21 15:15:00,
2013-04-21 10:20:00,39.2,35.4,30.17,SE,142,17.0,20.0,86,0.00,,---,0.01,VWS V14.00,2013-04-21 15:20:00,
2013-04-21 10:25:00,39.2,35.1,30.16,South,187,8.0,20.0,85,0.00,,---,0.01,VWS V14.00,2013-04-21 15:25:00,
2013-04-21 10:30:00,39.0,34.9,30.16,SE,146,9.0,17.0,85,0.00,,---,0.01,VWS V14.00,2013-04-21 15:30:00,
2013-04-21 10:35:00,38.8,35.0,30.16,SSE,159,9.0,20.0,86,0.00,,---,0.01,VWS V14.00,2013-04-21 15:35:00,
2013-04-21 10:40:00,38.9,35.1,30.15,South,175,11.0,20.0,86,0.00,,---,0.01,VWS V14.00,2013-04-21 15:40:00,
2013-04-21 10:45:00,39.2,35.4,30.15,SSE,150,12.0,21.0,86,0.00,,---,0.01,VWS V14.00,2013-04-21 15:45:00,
2013-04-21 10:50:00,39.6,35.5,30.15,SSE,151,12.0,22.0,85,0.00,,---,0.01,VWS V14.00,2013-04-21 15:50:00,
2013-04-21 10:55:00,39.9,35.8,30.15,SE,134,24.0,25.0,85,0.00,,---,0.01,VWS V14.00,2013-04-21 15:55:00,
2013-04-21 11:00:00,40.1,35.7,30.14,SE,144,14.0,21.0,84,0.00,,---,0.01,VWS V14.00,2013-04-21 16:00:00,
2013-04-21 11:05:00,40.3,35.9,30.14,SSE,165,5.0,22.0,84,0.00,,---,0.01,VWS V14.00,2013-04-21 16:05:00,
2013-04-21 11:10:00,40.6,35.8,30.14,SSE,152,13.0,24.0,83,0.00,,---,0.01,VWS V14.00,2013-04-21 16:10:00,
2013-04-21 11:15:00,40.8,36.0,30.13,South,169,13.0,24.0,83,0.00,,---,0.01,VWS V14.00,2013-04-21 16:15:00,
2013-04-21 11:20:00,41.0,36.2,30.13,SE,141,11.0,24.0,83,0.00,,---,0.01,VWS V14.00,2013-04-21 16:20:00,
2013-04-21 11:25:00,41.3,36.2,30.13,SSE,155,4.0,24.0,82,0.00,,---,0.01,VWS V14.00,2013-04-21 16:25:00,
2013-04-21 11:30:00,41.5,36.1,30.13,South,175,6.0,18.0,81,0.00,,---,0.01,VWS V14.00,2013-04-21 16:30:00,
2013-04-21 11:35:00,41.8,36.4,30.12,SSE,153,17.0,18.0,81,0.00,,---,0.01,VWS V14.00,2013-04-21 16:35:00,
2013-04-21 11:40:00,42.0,36.6,30.12,South,190,9.0,19.0,81,0.00,,---,0.01,VWS V14.00,2013-04-21 16:40:00,
2013-04-21 11:45:00,42.3,36.6,30.12,South,173,3.0,19.0,80,0.00,,---,0.01,VWS V14.00,2013-04-21 16:45:00,
2013-04-21 11:50:00,42.5,36.8,30.11,SE,146,17.0,20.0,80,0.00,,---,0.01,VWS V14.00,2013-04-21 16:50:00,
2013-04-21 11:56:00,42.5,36.5,30.11,South,187,11.0,20.0,79,0.00,,---,0.01,VWS V14.00,2013-04-21 16:56:00,
2013-04-21 12:00:00,42.5,36.8,30.11,SE,143,13.0,20.0,80,0.00,,---,0.01,VWS V14.00,2013-04-21 17:00:00,
2013-04-21 12:01:00,42.7,36.7,30.11,South,178,13.0,18.0,79,0.00,,---,0.01,VWS V14.00,2013-04-21 17:01:00,
2013-04-21 12:06:00,42.7,36.7,30.10,SE,131,5.0,20.0,79,0.00,,---,0.01,VWS V14.00,2013-04-21 17:06:00,
2013-04-21 12:11:00,42.9,36.8,30.10,South,187,12.0,21.0,79,0.00,,---,0.01,VWS V14.00,2013-04-21 17:11:00,
2013-04-21 12:16:00,43.0,36.9,30.10,SSE,165,6.0,21.0,79,0.00,,---,0.01,VWS V14.00,2013-04-21 17:16:00,
2013-04-21 12:21:00,43.1,37.0,30.10,SE,146,12.0,24.0,79,0.00,,---,0.01,VWS V14.00,2013-04-21 17:21:00,
2013-04-21 12:26:00,43.1,37.4,30.10,SSE,148,16.0,24.0,80,0.00,,---,0.01,VWS V14.00,2013-04-21 17:26:00,
2013-04-21 12:30:00,43.1,37.4,30.10,South,179,17.0,24.0,80,0.00,,---,0.01,VWS V14.00,2013-04-21 17:30:00,
2013-04-21 12:31:00,43.0,37.3,30.09,SSE,150,10.0,17.0,80,0.00,,---,0.01,VWS V14.00,2013-04-21 17:31:00,
2013-04-21 12:36:00,43.1,37.4,30.09,SSE,149,10.0,19.0,80,0.00,,---,0.01,VWS V14.00,2013-04-21 17:36:00,
2013-04-21 12:41:00,43.2,37.5,30.08,SSE,161,7.0,19.0,80,0.00,,---,0.01,VWS V14.00,2013-04-21 17:41:00,
2013-04-21 12:46:00,43.4,37.7,30.09,SSE,159,6.0,19.0,80,0.00,,---,0.01,VWS V14.00,2013-04-21 17:46:00,
2013-04-21 12:51:00,43.5,37.8,30.08,SSE,158,5.0,19.0,80,0.00,,---,0.01,VWS V14.00,2013-04-21 17:51:00,
2013-04-21 12:56:00,43.5,37.8,30.08,South,178,7.0,19.0,80,0.00,,---,0.01,VWS V14.00,2013-04-21 17:56:00,
2013-04-21 13:00:00,43.6,37.8,30.08,SSE,163,4.0,19.0,80,0.00,,---,0.01,VWS V14.00,2013-04-21 18:00:00,
2013-04-21 13:01:00,43.6,37.8,30.07,SSE,153,10.0,16.0,80,0.00,,---,0.01,VWS V14.00,2013-04-21 18:01:00,
2013-04-21 13:06:00,43.7,38.0,30.07,SSE,163,8.0,16.0,80,0.00,,---,0.01,VWS V14.00,2013-04-21 18:06:00,
2013-04-21 13:11:00,43.7,38.3,30.07,South,170,8.0,16.0,81,0.00,,---,0.01,VWS V14.00,2013-04-21 18:11:00,
2013-04-21 13:16:00,43.8,38.4,30.07,South,184,9.0,18.0,81,0.00,,---,0.01,VWS V14.00,2013-04-21 18:16:00,
2013-04-21 13:21:00,43.9,38.5,30.07,SSE,158,10.0,19.0,81,0.00,,---,0.01,VWS V14.00,2013-04-21 18:21:00,
2013-04-21 13:26:00,44.1,38.7,30.06,ESE,121,13.0,19.0,81,0.00,,---,0.01,VWS V14.00,2013-04-21 18:26:00,
2013-04-21 13:30:00,44.1,38.7,30.06,SSE,155,5.0,19.0,81,0.00,,---,0.01,VWS V14.00,2013-04-21 18:30:00,
2013-04-21 13:31:00,44.3,38.8,30.06,ESE,122,11.0,17.0,81,0.00,,---,0.01,VWS V14.00,2013-04-21 18:31:00,
2013-04-21 13:36:00,44.6,39.1,30.06,SE,140,17.0,19.0,81,0.00,,---,0.01,VWS V14.00,2013-04-21 18:36:00,
2013-04-21 13:41:00,44.7,38.9,30.05,SSE,161,13.0,19.0,80,0.00,,---,0.01,VWS V14.00,2013-04-21 18:41:00,
2013-04-21 13:46:00,44.7,38.9,30.05,SE,140,15.0,19.0,80,0.00,,---,0.01,VWS V14.00,2013-04-21 18:46:00,
2013-04-21 13:51:00,44.8,39.3,30.05,SSE,148,8.0,19.0,81,0.00,,---,0.01,VWS V14.00,2013-04-21 18:51:00,
2013-04-21 13:56:00,45.0,39.5,30.05,SE,139,8.0,19.0,81,0.00,,---,0.01,VWS V14.00,2013-04-21 18:56:00,
2013-04-21 14:00:00,45.1,39.6,30.05,South,174,7.0,19.0,81,0.00,,---,0.01,VWS V14.00,2013-04-21 19:00:00,
2013-04-21 14:01:00,45.3,39.8,30.05,SSE,150,3.0,15.0,81,0.00,,---,0.01,VWS V14.00,2013-04-21 19:01:00,
2013-04-21 14:06:00,45.7,40.2,30.05,SSE,159,6.0,15.0,81,0.00,,---,0.01,VWS V14.00,2013-04-21 19:06:00,
2013-04-21 14:11:00,46.1,40.3,30.04,South,177,11.0,16.0,80,0.00,,---,0.01,VWS V14.00,2013-04-21 19:11:00,
2013-04-21 14:16:00,46.5,40.7,30.04,SE,142,8.0,16.0,80,0.00,,---,0.01,VWS V14.00,2013-04-21 19:16:00,
2013-04-21 14:21:00,47.0,41.2,30.04,SE,146,11.0,16.0,80,0.00,,---,0.01,VWS V14.00,2013-04-21 19:21:00,
2013-04-21 14:26:00,47.3,41.1,30.04,South,173,0.0,16.0,79,0.00,,---,0.01,VWS V14.00,2013-04-21 19:26:00,
2013-04-21 14:30:00,47.4,41.2,30.04,South,172,4.0,16.0,79,0.00,,---,0.01,VWS V14.00,2013-04-21 19:30:00,
2013-04-21 14:31:00,47.5,41.0,30.03,SSE,149,11.0,13.0,78,0.00,,---,0.01,VWS V14.00,2013-04-21 19:31:00,
2013-04-21 14:36:00,47.4,40.9,30.03,SSE,150,12.0,16.0,78,0.00,,---,0.01,VWS V14.00,2013-04-21 19:36:00,
2013-04-21 14:41:00,47.2,41.4,30.03,South,182,10.0,17.0,80,0.00,,---,0.01,VWS V14.00,2013-04-21 19:41:00,
2013-04-21 14:46:00,47.2,41.4,30.04,South,190,6.0,17.0,80,0.00,,---,0.01,VWS V14.00,2013-04-21 19:46:00,
2013-04-21 14:51:00,47.2,41.4,30.03,SSE,159,6.0,17.0,80,0.00,,---,0.01,VWS V14.00,2013-04-21 19:51:00,
2013-04-21 14:56:00,47.3,41.5,30.03,SSW,197,9.0,17.0,80,0.00,,---,0.01,VWS V14.00,2013-04-21 19:56:00,
2013-04-21 15:00:00,47.3,41.5,30.03,South,178,4.0,17.0,80,0.00,,---,0.01,VWS V14.00,2013-04-21 20:00:00,
2013-04-21 15:01:00,47.3,41.5,30.03,South,177,6.0,16.0,80,0.00,,---,0.01,VWS V14.00,2013-04-21 20:01:00,
2013-04-21 15:06:00,47.2,41.4,30.03,SE,134,10.0,16.0,80,0.00,,---,0.01,VWS V14.00,2013-04-21 20:06:00,
2013-04-21 15:11:00,47.1,41.3,30.03,SE,134,11.0,16.0,80,0.00,,---,0.01,VWS V14.00,2013-04-21 20:11:00,
2013-04-21 15:16:00,47.0,41.5,30.03,South,180,3.0,16.0,81,0.00,,---,0.01,VWS V14.00,2013-04-21 20:16:00,
2013-04-21 15:21:00,47.0,41.5,30.03,SSE,165,7.0,16.0,81,0.00,,---,0.01,VWS V14.00,2013-04-21 20:21:00,
2013-04-21 15:26:00,46.7,41.5,30.02,South,177,2.0,16.0,82,0.00,,---,0.01,VWS V14.00,2013-04-21 20:26:00,
2013-04-21 15:30:00,46.6,41.4,30.02,South,177,0.0,16.0,82,0.00,,---,0.01,VWS V14.00,2013-04-21 20:30:00,
2013-04-21 15:31:00,46.4,41.5,30.02,South,177,6.0,15.0,83,0.00,,---,0.01,VWS V14.00,2013-04-21 20:31:00,
2013-04-21 15:36:00,46.2,41.6,30.02,South,188,9.0,15.0,84,0.00,,---,0.01,VWS V14.00,2013-04-21 20:36:00,
2013-04-21 15:41:00,46.0,41.4,30.02,SSE,153,4.0,15.0,84,0.00,,---,0.01,VWS V14.00,2013-04-21 20:41:00,
2013-04-21 15:46:00,45.8,41.5,30.02,SSE,153,0.0,15.0,85,0.00,,---,0.02,VWS V14.00,2013-04-21 20:46:00,
2013-04-21 15:51:00,45.5,41.6,30.01,South,169,3.0,15.0,86,0.00,,---,0.02,VWS V14.00,2013-04-21 20:51:00,
2013-04-21 15:56:00,45.2,41.6,30.01,SSE,159,1.0,15.0,87,0.00,,---,0.02,VWS V14.00,2013-04-21 20:56:00,
2013-04-21 16:00:00,45.2,41.6,30.01,SSE,165,4.0,15.0,87,0.00,,---,0.02,VWS V14.00,2013-04-21 21:00:00,
2013-04-21 16:01:00,44.9,41.6,30.01,SSE,152,4.0,7.0,88,0.00,,---,0.02,VWS V14.00,2013-04-21 21:01:00,
2013-04-21 16:06:00,44.7,41.7,30.00,SSE,149,0.0,7.0,89,0.00,,---,0.02,VWS V14.00,2013-04-21 21:06:00,
2013-04-21 16:11:00,44.5,41.8,30.00,SE,146,5.0,9.0,90,0.00,,---,0.02,VWS V14.00,2013-04-21 21:11:00,
2013-04-21 16:16:00,44.4,41.7,30.00,SSE,150,0.0,9.0,90,0.00,,---,0.03,VWS V14.00,2013-04-21 21:16:00,
2013-04-21 16:21:00,44.4,41.9,30.00,SSE,150,0.0,9.0,91,0.00,,---,0.03,VWS V14.00,2013-04-21 21:21:00,
2013-04-21 16:26:00,44.4,42.2,30.00,SSE,151,0.0,9.0,92,0.06,,---,0.04,VWS V14.00,2013-04-21 21:26:00,
2013-04-21 16:30:00,44.4,42.2,30.00,SSE,151,0.0,9.0,92,0.06,,---,0.04,VWS V14.00,2013-04-21 21:30:00,
2013-04-21 16:31:00,44.4,42.2,30.00,SSE,157,0.0,0.0,92,0.06,,---,0.04,VWS V14.00,2013-04-21 21:31:00,
2013-04-21 16:36:00,44.4,42.2,30.00,SSE,161,0.0,0.0,92,0.05,,---,0.04,VWS V14.00,2013-04-21 21:36:00,
2013-04-21 16:41:00,44.4,42.2,30.00,SSE,161,0.0,0.0,92,0.04,,---,0.05,VWS V14.00,2013-04-21 21:41:00,
2013-04-21 16:46:00,44.4,42.5,30.00,SSE,161,0.0,0.0,93,0.04,,---,0.05,VWS V14.00,2013-04-21 21:46:00,
2013-04-21 16:51:00,44.4,42.5,30.00,SSE,161,0.0,0.0,93,0.08,,---,0.06,VWS V14.00,2013-04-21 21:51:00,
2013-04-21 16:56:00,44.5,42.9,30.00,SSE,161,0.0,0.0,94,0.07,,---,0.06,VWS V14.00,2013-04-21 21:56:00,
2013-04-21 17:00:00,44.6,43.0,30.00,SSE,161,0.0,0.0,94,0.06,,---,0.06,VWS V14.00,2013-04-21 22:00:00,
2013-04-21 17:01:00,44.6,43.0,30.00,SSE,162,0.0,0.0,94,0.04,,---,0.07,VWS V14.00,2013-04-21 22:01:00,
2013-04-21 17:06:00,44.5,42.9,30.00,SSE,162,0.0,0.0,94,0.04,,---,0.07,VWS V14.00,2013-04-21 22:06:00,
2013-04-21 17:11:00,44.6,43.0,30.00,SW,228,9.0,10.0,94,0.09,,---,0.08,VWS V14.00,2013-04-21 22:11:00,
2013-04-21 17:16:00,44.9,43.3,30.01,SW,230,5.0,10.0,94,0.08,,---,0.08,VWS V14.00,2013-04-21 22:16:00,
2013-04-21 17:21:00,45.0,43.7,30.01,WSW,250,7.0,10.0,95,0.06,,---,0.09,VWS V14.00,2013-04-21 22:21:00,
2013-04-21 17:26:00,45.0,43.7,30.00,South,174,0.0,10.0,95,0.09,,---,0.10,VWS V14.00,2013-04-21 22:26:00,
2013-04-21 17:30:00,45.0,43.7,30.00,South,174,0.0,10.0,95,0.09,,---,0.10,VWS V14.00,2013-04-21 22:30:00,
2013-04-21 17:31:00,45.1,43.8,30.00,SW,227,6.0,8.0,95,0.09,,---,0.10,VWS V14.00,2013-04-21 22:31:00,
2013-04-21 17:36:00,45.1,43.8,30.00,South,181,3.0,8.0,95,0.06,,---,0.11,VWS V14.00,2013-04-21 22:36:00,
2013-04-21 17:41:00,45.2,43.9,30.00,SSW,211,4.0,8.0,95,0.06,,---,0.11,VWS V14.00,2013-04-21 22:41:00,
2013-04-21 17:46:00,45.2,43.9,30.00,SW,215,3.0,8.0,95,0.09,,---,0.12,VWS V14.00,2013-04-21 22:46:00,
2013-04-21 17:51:00,45.2,43.9,30.00,SW,222,4.0,8.0,95,0.07,,---,0.12,VWS V14.00,2013-04-21 22:51:00,
2013-04-21 17:56:00,45.1,43.8,30.00,SSW,198,3.0,8.0,95,0.06,,---,0.13,VWS V14.00,2013-04-21 22:56:00,
2013-04-21 18:00:00,45.1,43.8,30.00,SW,227,5.0,8.0,95,0.06,,---,0.13,VWS V14.00,2013-04-21 23:00:00,
2013-04-21 18:01:00,45.0,43.7,30.00,SW,219,0.0,5.0,95,0.09,,---,0.14,VWS V14.00,2013-04-21 23:01:00,
2013-04-21 18:06:00,45.1,43.8,30.00,SW,215,0.0,5.0,95,0.09,,---,0.14,VWS V14.00,2013-04-21 23:06:00,
2013-04-21 18:11:00,45.2,43.9,30.00,SSW,206,0.0,7.0,95,0.05,,---,0.14,VWS V14.00,2013-04-21 23:11:00,
2013-04-21 18:30:00,45.5,44.4,30.00,SW,225,1.0,7.0,96,0.09,,---,0.16,VWS V14.00,2013-04-21 23:30:00,
2013-04-21 19:00:00,45.4,44.3,30.00,WSW,248,2.0,15.0,96,0.00,,---,0.16,VWS V14.00,2013-04-22 00:00:00,
2013-04-21 19:30:00,44.5,42.3,30.02,West,270,4.0,11.0,92,0.00,,---,0.16,VWS V14.00,2013-04-22 00:30:00,
2013-04-21 20:00:00,43.3,41.1,30.03,West,270,2.0,9.0,92,0.00,,---,0.16,VWS V14.00,2013-04-22 01:00:00,
2013-04-21 20:30:00,41.8,39.7,30.06,West,270,5.0,14.0,92,0.00,,---,0.16,VWS V14.00,2013-04-22 01:30:00,
2013-04-21 21:00:00,40.8,38.4,30.07,WNW,292,4.0,14.0,91,0.00,,---,0.16,VWS V14.00,2013-04-22 02:00:00,
2013-04-21 21:30:00,40.4,38.3,30.09,WNW,292,2.0,9.0,92,0.00,,---,0.16,VWS V14.00,2013-04-22 02:30:00,
2013-04-21 22:00:00,39.9,37.8,30.10,WNW,292,3.0,7.0,92,0.00,,---,0.16,VWS V14.00,2013-04-22 03:00:00,
2013-04-21 22:30:00,39.4,37.0,30.12,WNW,292,3.0,15.0,91,0.00,,---,0.16,VWS V14.00,2013-04-22 03:30:00,
2013-04-21 23:00:00,38.4,35.7,30.13,NW,315,7.0,21.0,90,0.00,,---,0.16,VWS V14.00,2013-04-22 04:00:00,
2013-04-21 23:30:00,37.6,34.9,30.13,NW,315,5.0,13.0,90,0.00,,---,0.16,VWS V14.00,2013-04-22 04:30:00,